Time;durP1;ratioP1;P1;durP2;ratioP2;P2;SDS_P1;SDS_P2;PMS_P1;PMS_P2;Temp;Humidity;BMP_temperature;BMP_pressure;BME280_temperature;BME280_humidity;BME280_pressure;Samples;Min_cycle;Max_cycle;Signal;HPM_P1;HPM_P2
2023/10/10 00:01:02;;;;;;;28.33;12.27;;;;;;;;;;5033446;28;20037;-72
2023/10/10 00:03:31;;;;;;;27.45;11.10;;;;;;;;;;5033787;28;20025;-72
2023/10/10 00:06:00;;;;;;;20.98;8.95;;;;;;;;;;5034037;28;20032;-72
2023/10/10 00:08:34;;;;;;;27.52;11.23;;;;;;;;;;5033295;28;20076;-72
2023/10/10 00:11:00;;;;;;;28.60;10.70;;;;;;;;;;5033623;28;20021;-72
2023/10/10 00:13:26;;;;;;;33.53;13.05;;;;;;;;;;5033287;28;20415;-72
2023/10/10 00:15:55;;;;;;;25.98;11.07;;;;;;;;;;5033629;28;20083;-72
2023/10/10 00:18:21;;;;;;;25.55;9.30;;;;;;;;;;5023664;28;20395;-72
2023/10/10 00:21:06;;;;;;;28.95;12.98;;;;;;;;;;5028187;28;20080;-72
2023/10/10 00:23:38;;;;;;;22.15;10.88;;;;;;;;;;5029666;28;20104;-72
2023/10/10 00:26:05;;;;;;;23.30;8.80;;;;;;;;;;5027515;28;20025;-72
2023/10/10 00:28:33;;;;;;;29.48;12.10;;;;;;;;;;5012996;28;20117;-72
2023/10/10 00:30:59;;;;;;;27.70;11.60;;;;;;;;;;5013749;28;20026;-72
2023/10/10 00:33:25;;;;;;;25.98;11.77;;;;;;;;;;5031176;28;20025;-72
2023/10/10 00:35:50;;;;;;;27.75;11.63;;;;;;;;;;5034303;28;20499;-72
2023/10/10 00:38:22;;;;;;;24.00;10.30;;;;;;;;;;5029234;28;20021;-72
2023/10/10 00:40:48;;;;;;;25.63;10.95;;;;;;;;;;5034366;28;20021;-71
2023/10/10 00:43:16;;;;;;;37.72;14.02;;;;;;;;;;5034565;28;20027;-72
2023/10/10 00:45:43;;;;;;;35.33;13.68;;;;;;;;;;5034092;28;20443;-72
2023/10/10 00:48:09;;;;;;;30.20;12.80;;;;;;;;;;5031452;28;20025;-72
2023/10/10 00:50:37;;;;;;;30.58;11.38;;;;;;;;;;5024827;28;20021;-71
2023/10/10 00:53:11;;;;;;;24.33;10.90;;;;;;;;;;5032732;28;20488;-72
2023/10/10 00:55:36;;;;;;;32.05;12.45;;;;;;;;;;5032878;28;20116;-72
2023/10/10 00:58:02;;;;;;;24.30;10.40;;;;;;;;;;5032490;28;20436;-72
2023/10/10 01:00:31;;;;;;;27.23;10.18;;;;;;;;;;5032519;28;20032;-72
2023/10/10 01:03:41;;;;;;;36.15;13.90;;;;;;;;;;5033684;28;20126;-72
2023/10/10 01:05:52;;;;;;;;;;;;;;;;;;5027628;28;20214;-72
2023/10/10 01:08:19;;;;;;;21.60;8.55;;;;;;;;;;5032344;28;20375;-72
2023/10/10 01:10:48;;;;;;;30.10;12.38;;;;;;;;;;5032348;28;20053;-72
2023/10/10 01:13:13;;;;;;;43.95;15.65;;;;;;;;;;5032584;28;20026;-72
2023/10/10 01:15:38;;;;;;;25.15;10.13;;;;;;;;;;5031337;28;20029;-72
2023/10/10 01:18:13;;;;;;;27.63;10.95;;;;;;;;;;5030986;28;20025;-72
2023/10/10 01:20:45;;;;;;;25.92;11.38;;;;;;;;;;5026738;28;20033;-72
2023/10/10 01:23:11;;;;;;;37.50;13.82;;;;;;;;;;5033808;28;20024;-72
2023/10/10 01:28:27;;;;;;;26.75;11.10;;;;;;;;;;5032105;28;20076;-72
2023/10/10 01:33:22;;;;;;;30.35;13.07;;;;;;;;;;5033698;28;20021;-72
2023/10/10 01:35:55;;;;;;;122.47;18.00;;;;;;;;;;5033061;28;20021;-72
2023/10/10 01:38:27;;;;;;;110.25;16.30;;;;;;;;;;5033131;28;20018;-72
2023/10/10 01:40:54;;;;;;;103.53;13.27;;;;;;;;;;5033424;28;20663;-72
2023/10/10 01:43:20;;;;;;;146.02;17.90;;;;;;;;;;5029615;28;20025;-72
2023/10/10 01:45:48;;;;;;;73.35;11.75;;;;;;;;;;5013547;28;20462;-72
2023/10/10 01:48:13;;;;;;;74.47;11.15;;;;;;;;;;5012514;28;20037;-72
2023/10/10 01:50:41;;;;;;;74.10;9.95;;;;;;;;;;5030496;28;20403;-72
2023/10/10 01:53:09;;;;;;;15.73;8.73;;;;;;;;;;5048575;28;20036;-72
2023/10/10 01:55:36;;;;;;;48.80;11.45;;;;;;;;;;5032264;28;20021;-71
2023/10/10 01:58:02;;;;;;;83.50;12.80;;;;;;;;;;5033325;28;20033;-71
2023/10/10 02:00:34;;;;;;;63.95;12.15;;;;;;;;;;5033333;28;20025;-71
2023/10/10 02:03:01;;;;;;;38.03;8.02;;;;;;;;;;5033445;28;20026;-72
2023/10/10 02:08:03;;;;;;;14.23;7.38;;;;;;;;;;5033487;28;20028;-71
2023/10/10 02:10:30;;;;;;;22.52;7.80;;;;;;;;;;5031972;28;20026;-72
2023/10/10 02:12:59;;;;;;;44.30;11.18;;;;;;;;;;5032809;28;20096;-72
2023/10/10 02:15:27;;;;;;;41.05;8.90;;;;;;;;;;5032122;28;20029;-71
2023/10/10 02:17:56;;;;;;;80.28;11.52;;;;;;;;;;5031998;28;20040;-72
2023/10/10 02:22:53;;;;;;;17.45;6.07;;;;;;;;;;5031663;28;20403;-72
2023/10/10 02:25:37;;;;;;;24.23;7.53;;;;;;;;;;5031950;28;20047;-71
2023/10/10 02:28:08;;;;;;;14.35;6.35;;;;;;;;;;5031972;28;20057;-72
2023/10/10 02:30:37;;;;;;;29.50;8.45;;;;;;;;;;5016236;28;20032;-72
2023/10/10 02:35:54;;;;;;;9.55;5.65;;;;;;;;;;5032808;28;20029;-72
2023/10/10 02:38:33;;;;;;;38.10;8.82;;;;;;;;;;5035686;28;20484;-72
2023/10/10 02:41:21;;;;;;;44.80;7.72;;;;;;;;;;5037631;28;20399;-71
2023/10/10 02:46:35;;;;;;;13.20;6.78;;;;;;;;;;5036667;28;20105;-72
2023/10/10 02:49:13;;;;;;;13.32;6.80;;;;;;;;;;5034806;28;20532;-72
2023/10/10 02:51:48;;;;;;;10.93;5.45;;;;;;;;;;5036588;28;20484;-71
2023/10/10 02:54:54;;;;;;;10.82;6.72;;;;;;;;;;5035256;28;20116;-72
2023/10/10 02:59:51;;;;;;;14.10;7.78;;;;;;;;;;5036582;28;20072;-72
2023/10/10 03:02:19;;;;;;;11.75;6.28;;;;;;;;;;5036333;28;20054;-72
2023/10/10 03:07:29;;;;;;;12.85;7.15;;;;;;;;;;5035167;28;20021;-71
2023/10/10 03:12:30;;;;;;;12.20;6.75;;;;;;;;;;5035685;28;20061;-72
2023/10/10 03:15:12;;;;;;;10.68;5.88;;;;;;;;;;5036409;28;20068;-72
2023/10/10 03:18:14;;;;;;;8.45;5.70;;;;;;;;;;5036029;28;20110;-72
2023/10/10 03:25:52;;;;;;;12.50;7.65;;;;;;;;;;5031758;28;20028;-72
2023/10/10 03:28:20;;;;;;;8.68;5.90;;;;;;;;;;5035557;28;20032;-72
2023/10/10 03:30:50;;;;;;;13.02;7.38;;;;;;;;;;5033966;28;20025;-72
2023/10/10 03:33:29;;;;;;;16.13;7.82;;;;;;;;;;5035554;28;20513;-72
2023/10/10 03:36:02;;;;;;;16.25;7.78;;;;;;;;;;5035521;28;20045;-72
2023/10/10 05:25:07;;;;;;;21.27;8.82;;;;;;;;;;5032369;28;20032;-72
2023/10/10 05:27:32;;;;;;;26.73;10.52;;;;;;;;;;5032200;28;20035;-72
2023/10/10 05:29:59;;;;;;;29.40;11.90;;;;;;;;;;5051340;28;20021;-72
2023/10/10 05:32:30;;;;;;;27.65;10.35;;;;;;;;;;5030561;28;20511;-72
2023/10/10 05:34:55;;;;;;;28.08;11.00;;;;;;;;;;5015998;28;20032;-72
2023/10/10 05:37:20;;;;;;;34.60;11.10;;;;;;;;;;5012153;28;20022;-72
2023/10/10 05:39:46;;;;;;;24.90;10.27;;;;;;;;;;5012586;28;20034;-72
2023/10/10 05:42:13;;;;;;;27.38;9.82;;;;;;;;;;5026998;28;20029;-72
2023/10/10 05:44:39;;;;;;;28.52;11.30;;;;;;;;;;5032266;28;20025;-72
2023/10/10 05:47:06;;;;;;;29.80;10.90;;;;;;;;;;5030720;28;20083;-72
2023/10/10 05:49:34;;;;;;;28.15;11.07;;;;;;;;;;5028129;28;20113;-71
2023/10/10 05:52:01;;;;;;;28.60;11.10;;;;;;;;;;5029853;28;20092;-72
2023/10/10 05:54:26;;;;;;;25.38;9.90;;;;;;;;;;5022870;28;20030;-72
2023/10/10 05:56:52;;;;;;;24.88;11.27;;;;;;;;;;5012757;28;20022;-71
2023/10/10 05:59:17;;;;;;;34.70;11.43;;;;;;;;;;5025460;28;20340;-72
2023/10/10 06:01:43;;;;;;;27.02;10.65;;;;;;;;;;5014647;28;20032;-72
2023/10/10 06:04:11;;;;;;;30.05;11.52;;;;;;;;;;5031125;28;20155;-72
2023/10/10 06:06:37;;;;;;;33.45;11.35;;;;;;;;;;5030350;28;20613;-72
2023/10/10 06:09:04;;;;;;;28.65;10.88;;;;;;;;;;5032075;28;20060;-73
2023/10/10 06:11:32;;;;;;;28.85;10.73;;;;;;;;;;5033076;28;20029;-72
2023/10/10 06:13:58;;;;;;;25.77;11.52;;;;;;;;;;5035339;28;20083;-72
2023/10/10 06:16:23;;;;;;;32.60;12.13;;;;;;;;;;5035313;28;20430;-71
2023/10/10 06:18:50;;;;;;;29.38;10.52;;;;;;;;;;5034403;28;20029;-72
2023/10/10 06:21:16;;;;;;;27.20;10.48;;;;;;;;;;5035695;28;20029;-72
2023/10/10 06:23:42;;;;;;;30.92;10.88;;;;;;;;;;5034643;28;20055;-72
2023/10/10 06:26:08;;;;;;;24.27;9.93;;;;;;;;;;5036020;28;20067;-72
2023/10/10 06:28:42;;;;;;;26.77;11.07;;;;;;;;;;5034602;28;20029;-71
2023/10/10 06:31:10;;;;;;;24.77;9.77;;;;;;;;;;5034951;28;20403;-71
2023/10/10 06:33:35;;;;;;;23.42;9.43;;;;;;;;;;5035151;28;20028;-71
2023/10/10 06:41:27;;;;;;;24.88;9.23;;;;;;;;;;5035492;28;20033;-72
2023/10/10 06:43:53;;;;;;;21.30;8.63;;;;;;;;;;5036172;28;20403;-72
2023/10/10 06:46:18;;;;;;;23.40;9.35;;;;;;;;;;5036048;28;20021;-72
2023/10/10 06:48:50;;;;;;;20.48;8.52;;;;;;;;;;5034635;28;20029;-72
2023/10/10 06:51:21;;;;;;;16.33;6.57;;;;;;;;;;5036015;28;20026;-72
2023/10/10 06:53:47;;;;;;;19.17;7.35;;;;;;;;;;5035996;28;20130;-72
2023/10/10 06:56:15;;;;;;;16.65;6.32;;;;;;;;;;5034726;28;20069;-72
2023/10/10 06:58:44;;;;;;;16.77;6.68;;;;;;;;;;5035804;28;20041;-72
2023/10/10 07:01:11;;;;;;;17.73;7.63;;;;;;;;;;5034743;28;20021;-72
2023/10/10 07:03:41;;;;;;;15.32;6.80;;;;;;;;;;5035827;28;20025;-72
2023/10/10 07:06:08;;;;;;;19.42;7.32;;;;;;;;;;5035846;28;20195;-72
2023/10/10 07:08:34;;;;;;;17.67;7.28;;;;;;;;;;5035567;28;20045;-72
2023/10/10 07:11:01;;;;;;;21.23;6.97;;;;;;;;;;5034812;28;20471;-72
2023/10/10 07:13:29;;;;;;;16.45;7.00;;;;;;;;;;5034729;28;20025;-72
2023/10/10 07:15:55;;;;;;;16.58;7.30;;;;;;;;;;5035574;28;20033;-72
2023/10/10 07:18:24;;;;;;;14.73;6.75;;;;;;;;;;5035444;28;20541;-72
2023/10/10 07:21:26;;;;;;;15.13;6.47;;;;;;;;;;5034623;28;20039;-72
2023/10/10 07:24:05;;;;;;;12.80;5.10;;;;;;;;;;5034261;28;20491;-72
2023/10/10 07:26:31;;;;;;;14.57;6.32;;;;;;;;;;5035457;28;20029;-72
2023/10/10 07:28:57;;;;;;;14.75;6.68;;;;;;;;;;5035219;28;20040;-72
2023/10/10 07:31:23;;;;;;;14.63;6.57;;;;;;;;;;5017598;28;20022;-72
2023/10/10 07:33:56;;;;;;;15.48;6.28;;;;;;;;;;5034108;28;20052;-72
2023/10/10 07:36:26;;;;;;;11.43;5.22;;;;;;;;;;5034004;28;20391;-72
2023/10/10 07:39:27;;;;;;;13.85;6.32;;;;;;;;;;5033815;28;20105;-72
2023/10/10 07:41:45;;;;;;;14.15;5.55;;;;;;;;;;5034034;28;20372;-72
2023/10/10 07:44:11;;;;;;;13.75;6.35;;;;;;;;;;5035094;28;20099;-72
2023/10/10 07:46:37;;;;;;;14.48;5.53;;;;;;;;;;5033822;28;20029;-72
2023/10/10 07:49:03;;;;;;;18.77;7.43;;;;;;;;;;5035602;28;20033;-72
2023/10/10 07:51:29;;;;;;;20.67;7.80;;;;;;;;;;5033789;28;20056;-72
2023/10/10 07:54:13;;;;;;;15.38;7.45;;;;;;;;;;5033702;28;20030;-72
2023/10/10 07:56:56;;;;;;;21.35;8.60;;;;;;;;;;5035116;28;20032;-72
2023/10/10 07:59:22;;;;;;;18.77;7.90;;;;;;;;;;5034753;28;20045;-72
2023/10/10 08:01:49;;;;;;;20.35;7.65;;;;;;;;;;5034833;28;20026;-72
2023/10/10 08:04:15;;;;;;;19.58;8.05;;;;;;;;;;5034940;28;20080;-72
2023/10/10 08:06:46;;;;;;;17.75;8.18;;;;;;;;;;5033448;28;20446;-72
2023/10/10 08:11:40;;;;;;;20.35;8.93;;;;;;;;;;5035088;28;19909;-71
2023/10/10 08:14:08;;;;;;;21.27;8.30;;;;;;;;;;5033232;28;20032;-71
2023/10/10 08:16:35;;;;;;;23.17;8.18;;;;;;;;;;5033280;28;20479;-72
2023/10/10 08:19:10;;;;;;;22.92;11.15;;;;;;;;;;5034300;28;20030;-72
2023/10/10 08:21:39;;;;;;;20.50;8.80;;;;;;;;;;5033312;28;20511;-72
2023/10/10 08:24:06;;;;;;;19.98;8.52;;;;;;;;;;5033048;28;20032;-72
2023/10/10 08:26:39;;;;;;;24.08;11.40;;;;;;;;;;5033331;28;20025;-72
2023/10/10 08:29:06;;;;;;;24.48;10.43;;;;;;;;;;5033198;28;20029;-72
2023/10/10 08:31:32;;;;;;;24.88;10.07;;;;;;;;;;5034105;28;20025;-72
2023/10/10 08:33:58;;;;;;;27.85;9.98;;;;;;;;;;5032852;28;20392;-72
2023/10/10 08:36:23;;;;;;;24.90;11.32;;;;;;;;;;5034066;28;20036;-72
2023/10/10 08:39:12;;;;;;;25.15;10.85;;;;;;;;;;5033907;28;20025;-72
2023/10/10 08:41:41;;;;;;;17.25;8.93;;;;;;;;;;5032967;28;20048;-72
2023/10/10 08:44:09;;;;;;;23.35;11.48;;;;;;;;;;5033019;28;20026;-72
2023/10/10 08:46:43;;;;;;;25.13;11.05;;;;;;;;;;5032687;28;20025;-72
2023/10/10 08:49:08;;;;;;;26.23;10.90;;;;;;;;;;5032389;28;20029;-72
2023/10/10 08:51:35;;;;;;;30.00;11.40;;;;;;;;;;5032733;28;20471;-71
2023/10/10 08:54:11;;;;;;;26.98;11.25;;;;;;;;;;5032602;28;20498;-70
2023/10/10 08:56:59;;;;;;;28.33;9.98;;;;;;;;;;5032888;28;20057;-69
2023/10/10 08:59:25;;;;;;;26.92;9.63;;;;;;;;;;5032861;28;20041;-71
2023/10/10 09:01:51;;;;;;;26.25;10.95;;;;;;;;;;5032752;28;20037;-72
2023/10/10 09:04:19;;;;;;;29.75;11.45;;;;;;;;;;5033200;28;20427;-70
2023/10/10 09:06:51;;;;;;;25.92;9.82;;;;;;;;;;5032286;28;20076;-69
2023/10/10 09:09:35;;;;;;;24.08;10.50;;;;;;;;;;5033493;28;20107;-69
2023/10/10 09:12:03;;;;;;;24.05;10.02;;;;;;;;;;5033504;28;20025;-70
2023/10/10 09:14:51;;;;;;;26.50;8.80;;;;;;;;;;5032271;28;20483;-69
2023/10/10 09:17:34;;;;;;;22.85;9.35;;;;;;;;;;5033530;28;20115;-69
2023/10/10 09:20:00;;;;;;;24.60;10.30;;;;;;;;;;5032226;28;20033;-70
2023/10/10 09:22:42;;;;;;;26.45;10.18;;;;;;;;;;5033323;28;20018;-69
2023/10/10 09:28:15;;;;;;;25.88;9.25;;;;;;;;;;5032316;28;20028;-69
2023/10/10 09:30:45;;;;;;;27.45;9.20;;;;;;;;;;5033252;28;20025;-69
2023/10/10 09:33:22;;;;;;;24.90;8.93;;;;;;;;;;5031987;28;20132;-69
2023/10/10 09:35:53;;;;;;;;;;;;;;;;;;5033344;28;20395;-69
2023/10/10 09:38:21;;;;;;;32.80;9.82;;;;;;;;;;5031854;28;19913;-69
2023/10/10 09:40:59;;;;;;;23.23;9.73;;;;;;;;;;5033177;28;20108;-69
2023/10/10 09:43:35;;;;;;;19.25;8.23;;;;;;;;;;5032163;28;20100;-69
2023/10/10 09:46:26;;;;;;;22.48;9.80;;;;;;;;;;5031194;28;20541;-70
2023/10/10 09:49:17;;;;;;;24.02;8.80;;;;;;;;;;5031619;28;20038;-69
2023/10/10 09:54:27;;;;;;;20.33;7.25;;;;;;;;;;5032217;28;20030;-69
2023/10/10 09:56:56;;;;;;;17.80;8.75;;;;;;;;;;5031763;28;20488;-69
2023/10/10 09:59:28;;;;;;;18.42;8.65;;;;;;;;;;5031952;28;20026;-69
2023/10/10 10:01:59;;;;;;;23.85;8.48;;;;;;;;;;5032926;28;20044;-69
2023/10/10 10:04:28;;;;;;;15.18;6.72;;;;;;;;;;5032033;28;20018;-69
2023/10/10 10:07:12;;;;;;;20.17;8.20;;;;;;;;;;5031661;28;20024;-69
2023/10/10 10:10:00;;;;;;;20.02;8.07;;;;;;;;;;5031512;28;20037;-69
2023/10/10 10:13:00;;;;;;;17.30;7.57;;;;;;;;;;5031637;28;20048;-69
2023/10/10 10:15:49;;;;;;;14.25;6.80;;;;;;;;;;5031924;28;20474;-69
2023/10/10 10:19:11;;;;;;;14.32;6.35;;;;;;;;;;5031559;28;20527;-69
2023/10/10 10:23:45;;;;;;;11.90;5.43;;;;;;;;;;5032655;28;20083;-69
2023/10/10 10:26:11;;;;;;;18.83;6.03;;;;;;;;;;5032668;28;20028;-69
2023/10/10 10:28:56;;;;;;;10.50;5.82;;;;;;;;;;5032854;28;20072;-69
2023/10/10 10:31:28;;;;;;;9.48;4.85;;;;;;;;;;5032363;28;20096;-69
2023/10/10 10:34:08;;;;;;;12.90;5.00;;;;;;;;;;5033640;28;20128;-70
2023/10/10 10:36:45;;;;;;;16.05;5.03;;;;;;;;;;5032621;28;20030;-69
2023/10/10 10:39:21;;;;;;;13.07;4.90;;;;;;;;;;5031185;28;20029;-69
2023/10/10 10:42:34;;;;;;;12.50;4.68;;;;;;;;;;5031850;28;20083;-69
2023/10/10 10:44:55;;;;;;;8.02;4.60;;;;;;;;;;5023579;28;20064;-70
2023/10/10 10:47:39;;;;;;;18.23;5.18;;;;;;;;;;5031797;28;20116;-69
2023/10/10 10:50:05;;;;;;;11.10;6.18;;;;;;;;;;5032343;28;20509;-69
2023/10/10 10:52:44;;;;;;;10.65;5.65;;;;;;;;;;5031242;28;20029;-69
2023/10/10 10:55:21;;;;;;;15.02;5.05;;;;;;;;;;5032324;28;20021;-70
2023/10/10 10:57:48;;;;;;;9.07;4.80;;;;;;;;;;5033031;28;20031;-69
2023/10/10 11:00:28;;;;;;;8.77;4.43;;;;;;;;;;5034933;28;20022;-69
2023/10/10 11:02:59;;;;;;;8.95;4.80;;;;;;;;;;5035894;28;20026;-69
2023/10/10 11:05:28;;;;;;;11.95;4.60;;;;;;;;;;5036051;28;20025;-69
2023/10/10 11:08:06;;;;;;;6.38;4.47;;;;;;;;;;5034414;28;20609;-69
2023/10/10 11:10:37;;;;;;;9.48;4.65;;;;;;;;;;5035833;28;20036;-69
2023/10/10 11:13:07;;;;;;;9.88;5.10;;;;;;;;;;5034848;28;20028;-69
2023/10/10 11:15:37;;;;;;;11.18;4.85;;;;;;;;;;5035964;28;20021;-69
2023/10/10 11:18:07;;;;;;;6.85;3.67;;;;;;;;;;5035780;28;20018;-69
2023/10/10 11:20:55;;;;;;;9.85;5.10;;;;;;;;;;5034508;28;20057;-69
2023/10/10 11:23:21;;;;;;;10.63;4.85;;;;;;;;;;5034698;28;20079;-69
2023/10/10 11:25:58;;;;;;;11.55;4.55;;;;;;;;;;5035655;28;20101;-69
2023/10/10 11:28:36;;;;;;;12.50;5.47;;;;;;;;;;5035531;28;20100;-69
2023/10/10 11:31:06;;;;;;;14.15;4.88;;;;;;;;;;5034255;28;20399;-70
2023/10/10 11:34:09;;;;;;;11.75;4.57;;;;;;;;;;5034103;28;20071;-69
2023/10/10 11:36:37;;;;;;;8.45;4.53;;;;;;;;;;5033844;28;20495;-69
2023/10/10 11:39:17;;;;;;;10.13;5.55;;;;;;;;;;5033907;28;20063;-70
2023/10/10 11:41:45;;;;;;;12.30;5.68;;;;;;;;;;5034152;28;20380;-69
2023/10/10 11:44:17;;;;;;;10.98;5.10;;;;;;;;;;5033774;28;20035;-69
2023/10/10 11:46:42;;;;;;;11.55;5.63;;;;;;;;;;5033883;28;20108;-69
2023/10/10 11:49:15;;;;;;;8.70;4.63;;;;;;;;;;5035050;28;20036;-69
2023/10/10 11:51:41;;;;;;;14.35;5.53;;;;;;;;;;5017335;28;20026;-69
2023/10/10 11:54:07;;;;;;;13.50;6.07;;;;;;;;;;5034952;28;20056;-69
2023/10/10 11:56:34;;;;;;;7.30;4.90;;;;;;;;;;5033633;28;20025;-69
2023/10/10 11:59:02;;;;;;;7.72;5.82;;;;;;;;;;5034695;28;20028;-69
2023/10/10 12:04:30;;;;;;;9.43;5.55;;;;;;;;;;5034713;28;20455;-69
2023/10/10 12:06:59;;;;;;;13.57;4.80;;;;;;;;;;5034678;28;20031;-69
2023/10/10 12:09:26;;;;;;;12.68;5.47;;;;;;;;;;5033800;28;20022;-69
2023/10/10 12:11:59;;;;;;;16.05;6.28;;;;;;;;;;5033171;28;20026;-69
2023/10/10 12:14:29;;;;;;;9.38;5.38;;;;;;;;;;5017852;28;20033;-69
2023/10/10 12:16:57;;;;;;;10.10;5.72;;;;;;;;;;5033298;28;20025;-69
2023/10/10 12:19:23;;;;;;;9.02;4.93;;;;;;;;;;5034364;28;20022;-69
2023/10/10 12:21:48;;;;;;;11.07;5.63;;;;;;;;;;5034387;28;20480;-69
2023/10/10 12:24:13;;;;;;;12.68;5.85;;;;;;;;;;5034214;28;20029;-69
2023/10/10 12:26:41;;;;;;;14.95;5.93;;;;;;;;;;5034245;28;20037;-69
2023/10/10 12:29:10;;;;;;;10.00;5.63;;;;;;;;;;5034187;28;20033;-69
2023/10/10 12:31:36;;;;;;;13.10;5.57;;;;;;;;;;5032999;28;20021;-69
2023/10/10 12:34:01;;;;;;;11.43;5.55;;;;;;;;;;5034417;28;20036;-69
2023/10/10 12:36:30;;;;;;;10.55;5.45;;;;;;;;;;5034099;28;20033;-69
2023/10/10 12:38:55;;;;;;;13.68;5.88;;;;;;;;;;5033820;28;20049;-69
2023/10/10 12:41:21;;;;;;;12.35;6.05;;;;;;;;;;5034009;28;20067;-69
2023/10/10 12:43:49;;;;;;;12.65;5.85;;;;;;;;;;5033955;28;20025;-69
2023/10/10 12:46:17;;;;;;;12.35;6.30;;;;;;;;;;5033014;28;20025;-69
2023/10/10 12:48:46;;;;;;;11.52;7.25;;;;;;;;;;5033693;28;20018;-69
2023/10/10 12:51:12;;;;;;;17.40;6.75;;;;;;;;;;5032956;28;20021;-69
2023/10/10 12:53:39;;;;;;;10.77;6.68;;;;;;;;;;5033735;28;20026;-69
2023/10/10 12:56:05;;;;;;;13.07;6.43;;;;;;;;;;5032549;28;20026;-69
2023/10/10 12:58:31;;;;;;;12.85;6.07;;;;;;;;;;5032498;28;20064;-69
2023/10/10 13:00:59;;;;;;;16.55;7.22;;;;;;;;;;5033974;28;20411;-69
2023/10/10 13:03:30;;;;;;;17.35;8.05;;;;;;;;;;5033665;28;20095;-69
2023/10/10 13:05:59;;;;;;;14.88;8.32;;;;;;;;;;5032168;28;20017;-69
2023/10/10 13:08:38;;;;;;;17.00;9.00;;;;;;;;;;5033194;28;20048;-69
2023/10/10 13:11:04;;;;;;;18.80;10.57;;;;;;;;;;5032493;28;20049;-69
2023/10/10 13:13:45;;;;;;;18.42;8.95;;;;;;;;;;5033644;28;20029;-69
2023/10/10 13:16:23;;;;;;;19.35;9.98;;;;;;;;;;5032548;28;20021;-69
2023/10/10 13:18:52;;;;;;;24.15;10.95;;;;;;;;;;5033324;28;20052;-69
2023/10/10 13:21:21;;;;;;;26.65;10.77;;;;;;;;;;5031187;28;20054;-69
2023/10/10 13:23:50;;;;;;;22.48;9.20;;;;;;;;;;5033193;28;20028;-69
2023/10/10 13:26:16;;;;;;;24.20;9.98;;;;;;;;;;5033120;28;20021;-69
2023/10/10 13:28:45;;;;;;;21.90;11.10;;;;;;;;;;5031860;28;20025;-69
2023/10/10 13:31:17;;;;;;;23.48;11.10;;;;;;;;;;5033129;28;20029;-70
2023/10/10 13:33:43;;;;;;;27.58;11.13;;;;;;;;;;5033162;28;20568;-70
2023/10/10 13:36:12;;;;;;;25.15;10.90;;;;;;;;;;5031902;28;20025;-70
2023/10/10 13:38:49;;;;;;;25.83;11.52;;;;;;;;;;5031820;28;20036;-70
2023/10/10 13:41:18;;;;;;;25.33;12.10;;;;;;;;;;5031904;28;20484;-70
2023/10/10 13:43:48;;;;;;;28.13;11.98;;;;;;;;;;5033036;28;20022;-70
2023/10/10 13:46:14;;;;;;;29.30;12.75;;;;;;;;;;5033507;28;20025;-70
2023/10/10 13:48:40;;;;;;;31.67;14.30;;;;;;;;;;5031611;28;20029;-70
2023/10/10 13:51:07;;;;;;;23.63;12.30;;;;;;;;;;5031825;28;20029;-70
2023/10/10 13:53:33;;;;;;;25.65;13.20;;;;;;;;;;5033021;28;20562;-70
2023/10/10 13:56:00;;;;;;;29.95;12.50;;;;;;;;;;5033122;28;20095;-70
2023/10/10 13:58:26;;;;;;;27.73;13.27;;;;;;;;;;5031667;28;20072;-69
2023/10/10 14:01:13;;;;;;;29.00;12.45;;;;;;;;;;5032998;28;20025;-69
2023/10/10 14:03:45;;;;;;;30.73;13.27;;;;;;;;;;5033161;28;20049;-69
2023/10/10 14:06:12;;;;;;;27.73;12.85;;;;;;;;;;5033157;28;20033;-69
2023/10/10 14:08:38;;;;;;;28.70;13.48;;;;;;;;;;5031504;28;20033;-69
2023/10/10 14:11:04;;;;;;;28.95;12.93;;;;;;;;;;5031891;28;20028;-70
2023/10/10 14:13:30;;;;;;;30.38;14.70;;;;;;;;;;5032802;28;20049;-70
2023/10/10 14:16:00;;;;;;;27.98;12.77;;;;;;;;;;5031589;28;20360;-70
2023/10/10 14:18:30;;;;;;;33.65;13.48;;;;;;;;;;5032775;28;20021;-69
2023/10/10 14:20:56;;;;;;;32.80;14.23;;;;;;;;;;5032794;28;20063;-69
2023/10/10 14:23:26;;;;;;;27.58;13.23;;;;;;;;;;5031540;28;20076;-69
2023/10/10 14:25:52;;;;;;;34.88;14.45;;;;;;;;;;5031498;28;20475;-70
2023/10/10 14:28:18;;;;;;;32.20;15.48;;;;;;;;;;5032552;28;20033;-69
2023/10/10 14:30:44;;;;;;;36.35;14.82;;;;;;;;;;5032799;28;20110;-69
2023/10/10 14:33:10;;;;;;;42.28;16.95;;;;;;;;;;5034516;28;20021;-69
2023/10/10 14:35:35;;;;;;;39.33;17.42;;;;;;;;;;5037085;28;20063;-69
2023/10/10 14:38:01;;;;;;;41.53;18.35;;;;;;;;;;5036220;28;20045;-69
2023/10/10 14:40:26;;;;;;;39.05;18.90;;;;;;;;;;5036452;28;20033;-69
2023/10/10 14:42:52;;;;;;;41.20;18.88;;;;;;;;;;5036269;28;20029;-69
2023/10/10 14:45:19;;;;;;;44.00;19.23;;;;;;;;;;5036037;28;20025;-69
2023/10/10 14:47:45;;;;;;;47.80;19.30;;;;;;;;;;5034481;28;20025;-69
2023/10/10 14:50:12;;;;;;;41.90;19.45;;;;;;;;;;5035762;28;20025;-69
2023/10/10 14:52:46;;;;;;;44.20;21.15;;;;;;;;;;5034561;28;20052;-69
2023/10/10 14:55:23;;;;;;;47.13;22.17;;;;;;;;;;5034832;28;20029;-69
2023/10/10 14:57:49;;;;;;;48.65;21.75;;;;;;;;;;5034671;28;20017;-69
2023/10/10 15:00:18;;;;;;;45.35;19.45;;;;;;;;;;5035597;28;20096;-69
2023/10/10 15:02:43;;;;;;;51.17;22.67;;;;;;;;;;5035708;28;20022;-69
2023/10/10 15:05:09;;;;;;;51.38;21.23;;;;;;;;;;5035827;28;20029;-69
2023/10/10 15:07:41;;;;;;;49.45;25.52;;;;;;;;;;5034618;28;20433;-70
2023/10/10 15:10:06;;;;;;;57.70;23.50;;;;;;;;;;5035681;28;20053;-69
2023/10/10 15:12:33;;;;;;;53.95;22.20;;;;;;;;;;5034868;28;20036;-69
2023/10/10 15:15:00;;;;;;;51.17;24.52;;;;;;;;;;5035615;28;20037;-69
2023/10/10 15:17:27;;;;;;;55.50;23.58;;;;;;;;;;5034447;28;20484;-69
2023/10/10 15:19:52;;;;;;;49.35;22.35;;;;;;;;;;5036142;28;20025;-69
2023/10/10 15:22:18;;;;;;;51.58;23.30;;;;;;;;;;5035407;28;20027;-70
2023/10/10 15:24:49;;;;;;;49.05;22.35;;;;;;;;;;5035389;28;20498;-69
2023/10/10 15:27:15;;;;;;;63.15;23.83;;;;;;;;;;5034504;28;20100;-69
2023/10/10 15:29:42;;;;;;;59.22;24.27;;;;;;;;;;5035225;28;20121;-69
2023/10/10 15:32:07;;;;;;;59.70;24.35;;;;;;;;;;5035370;28;20025;-69
2023/10/10 15:34:33;;;;;;;55.40;24.73;;;;;;;;;;5035332;28;20025;-69
2023/10/10 15:37:00;;;;;;;57.80;24.42;;;;;;;;;;5035175;28;20027;-69
2023/10/10 15:39:25;;;;;;;56.45;25.02;;;;;;;;;;5035099;28;20055;-69
2023/10/10 15:41:50;;;;;;;60.50;25.75;;;;;;;;;;5035165;28;20057;-69
2023/10/10 15:44:16;;;;;;;67.25;27.40;;;;;;;;;;5034069;28;20029;-69
2023/10/10 15:46:43;;;;;;;60.33;24.92;;;;;;;;;;5035035;28;20022;-69
2023/10/10 15:49:11;;;;;;;53.22;25.65;;;;;;;;;;5033662;28;20476;-69
2023/10/10 15:51:39;;;;;;;69.55;28.33;;;;;;;;;;5034146;28;20025;-69
2023/10/10 15:54:09;;;;;;;64.30;26.48;;;;;;;;;;5034878;28;20029;-69
2023/10/10 15:56:37;;;;;;;63.55;25.25;;;;;;;;;;5033668;28;20028;-69
2023/10/10 15:59:02;;;;;;;76.50;26.65;;;;;;;;;;5033599;28;20032;-69
2023/10/10 16:01:30;;;;;;;64.68;28.10;;;;;;;;;;5034743;28;20030;-70
2023/10/10 16:04:12;;;;;;;62.60;26.38;;;;;;;;;;5034675;28;20495;-69
2023/10/10 16:06:38;;;;;;;64.18;27.67;;;;;;;;;;5033889;28;20476;-70
2023/10/10 16:09:10;;;;;;;66.40;27.33;;;;;;;;;;5033564;28;20022;-69
2023/10/10 16:11:36;;;;;;;62.13;27.83;;;;;;;;;;5034635;28;20064;-70
2023/10/10 16:14:11;;;;;;;60.67;27.80;;;;;;;;;;5033388;28;20056;-70
2023/10/10 16:16:43;;;;;;;67.18;28.23;;;;;;;;;;5034505;28;20029;-70
2023/10/10 16:19:29;;;;;;;71.75;28.15;;;;;;;;;;5033402;28;20032;-70
2023/10/10 16:21:54;;;;;;;70.50;29.20;;;;;;;;;;5033325;28;20033;-70
2023/10/10 16:24:20;;;;;;;69.97;29.33;;;;;;;;;;5033173;28;20021;-69
2023/10/10 16:26:48;;;;;;;76.63;30.13;;;;;;;;;;5033416;28;20025;-69
2023/10/10 16:29:19;;;;;;;76.50;31.15;;;;;;;;;;5032897;28;20052;-70
2023/10/10 16:31:44;;;;;;;;;;;;;;;;;;5034967;28;20026;-69
2023/10/10 16:34:09;;;;;;;77.67;28.70;;;;;;;;;;5032987;28;20309;-69
2023/10/10 16:36:35;;;;;;;73.35;27.60;;;;;;;;;;5034081;28;20295;-69
2023/10/10 16:39:00;;;;;;;78.63;30.95;;;;;;;;;;5033889;28;20506;-70
2023/10/10 16:41:25;;;;;;;71.20;26.50;;;;;;;;;;5032899;28;20386;-70
2023/10/10 16:43:51;;;;;;;73.97;30.75;;;;;;;;;;5033349;28;20025;-69
2023/10/10 16:46:17;;;;;;;82.72;30.38;;;;;;;;;;5033908;28;20017;-69
2023/10/10 16:48:44;;;;;;;72.97;30.92;;;;;;;;;;5033749;28;20053;-70
2023/10/10 16:51:12;;;;;;;76.22;31.45;;;;;;;;;;5032987;28;20026;-70
2023/10/10 16:53:43;;;;;;;78.22;30.40;;;;;;;;;;5033776;28;20104;-70
2023/10/10 16:56:12;;;;;;;78.80;30.20;;;;;;;;;;5032402;28;20025;-70
2023/10/10 16:58:38;;;;;;;84.88;32.05;;;;;;;;;;5033904;28;20025;-69
2023/10/10 17:01:05;;;;;;;76.47;29.88;;;;;;;;;;5032577;28;20376;-69
2023/10/10 17:03:32;;;;;;;79.80;30.52;;;;;;;;;;5032740;28;20025;-69
2023/10/10 17:05:58;;;;;;;78.05;30.40;;;;;;;;;;5033534;28;20021;-70
2023/10/10 17:08:23;;;;;;;77.22;30.38;;;;;;;;;;5032126;28;20491;-69
2023/10/10 17:10:50;;;;;;;90.28;34.47;;;;;;;;;;5033510;28;20045;-69
2023/10/10 17:13:15;;;;;;;81.47;30.88;;;;;;;;;;5033489;28;20104;-69
2023/10/10 17:15:45;;;;;;;84.63;31.60;;;;;;;;;;5033438;28;20536;-69
2023/10/10 17:18:11;;;;;;;86.25;32.53;;;;;;;;;;5033619;28;20116;-70